sensor_id;sensor_type;location;lat;lon;timestamp;temperature;humidity
2391;DHT22;22957;50.824;4.360;2023-06-22T00:02:17;22.80;99.90
2391;DHT22;22957;50.824;4.360;2023-06-22T00:04:43;23.00;99.90
2391;DHT22;22957;50.824;4.360;2023-06-22T00:07:09;22.90;99.90
2391;DHT22;22957;50.824;4.360;2023-06-22T00:09:34;22.80;99.90
2391;DHT22;22957;50.824;4.360;2023-06-22T00:12:00;23.10;99.90
2391;DHT22;22957;50.824;4.360;2023-06-22T00:14:25;23.40;99.90
2391;DHT22;22957;50.824;4.360;2023-06-22T00:16:51;23.20;99.90
2391;DHT22;22957;50.824;4.360;2023-06-22T00:19:22;22.70;99.90
2391;DHT22;22957;50.824;4.360;2023-06-22T00:21:48;23.10;99.90
2391;DHT22;22957;50.824;4.360;2023-06-22T00:24:19;22.80;99.90
2391;DHT22;22957;50.824;4.360;2023-06-22T00:26:44;22.50;99.90
2391;DHT22;22957;50.824;4.360;2023-06-22T00:29:10;22.80;99.90
2391;DHT22;22957;50.824;4.360;2023-06-22T00:31:35;22.80;99.90
2391;DHT22;22957;50.824;4.360;2023-06-22T00:34:01;22.60;99.90
2391;DHT22;22957;50.824;4.360;2023-06-22T00:36:27;22.50;99.90
2391;DHT22;22957;50.824;4.360;2023-06-22T00:38:52;22.40;99.90
2391;DHT22;22957;50.824;4.360;2023-06-22T00:41:18;22.90;99.90
2391;DHT22;22957;50.824;4.360;2023-06-22T00:43:43;22.90;99.90
2391;DHT22;22957;50.824;4.360;2023-06-22T00:46:09;22.80;99.90
2391;DHT22;22957;50.824;4.360;2023-06-22T00:48:35;22.60;99.90
2391;DHT22;22957;50.824;4.360;2023-06-22T00:51:02;22.50;99.90
2391;DHT22;22957;50.824;4.360;2023-06-22T00:53:28;23.10;99.90
2391;DHT22;22957;50.824;4.360;2023-06-22T00:55:54;22.90;99.90
2391;DHT22;22957;50.824;4.360;2023-06-22T00:58:19;23.20;99.90
2391;DHT22;22957;50.824;4.360;2023-06-22T01:00:47;22.20;99.90
2391;DHT22;22957;50.824;4.360;2023-06-22T01:03:13;22.10;99.90
2391;DHT22;22957;50.824;4.360;2023-06-22T01:05:39;22.30;99.90
2391;DHT22;22957;50.824;4.360;2023-06-22T01:08:29;22.00;99.90
2391;DHT22;22957;50.824;4.360;2023-06-22T01:11:17;21.80;99.90
2391;DHT22;22957;50.824;4.360;2023-06-22T01:16:27;22.30;99.90
2391;DHT22;22957;50.824;4.360;2023-06-22T01:18:57;22.90;99.90
2391;DHT22;22957;50.824;4.360;2023-06-22T01:21:26;22.00;99.90
2391;DHT22;22957;50.824;4.360;2023-06-22T01:24:18;22.20;99.90
2391;DHT22;22957;50.824;4.360;2023-06-22T01:27:05;21.80;99.90
2391;DHT22;22957;50.824;4.360;2023-06-22T01:29:35;22.00;99.90
2391;DHT22;22957;50.824;4.360;2023-06-22T01:32:02;22.80;99.90
2391;DHT22;22957;50.824;4.360;2023-06-22T01:34:31;22.30;99.90
2391;DHT22;22957;50.824;4.360;2023-06-22T01:36:59;22.30;99.90
2391;DHT22;22957;50.824;4.360;2023-06-22T01:39:25;22.10;99.90
2391;DHT22;22957;50.824;4.360;2023-06-22T01:41:52;22.50;99.90
2391;DHT22;22957;50.824;4.360;2023-06-22T01:44:18;22.70;99.90
2391;DHT22;22957;50.824;4.360;2023-06-22T01:46:45;22.10;99.90
2391;DHT22;22957;50.824;4.360;2023-06-22T01:49:11;22.10;99.90
2391;DHT22;22957;50.824;4.360;2023-06-22T01:51:37;22.70;99.90
2391;DHT22;22957;50.824;4.360;2023-06-22T01:54:03;22.70;99.90
2391;DHT22;22957;50.824;4.360;2023-06-22T01:56:28;22.30;99.90
2391;DHT22;22957;50.824;4.360;2023-06-22T02:02:20;21.90;99.90
2391;DHT22;22957;50.824;4.360;2023-06-22T02:05:05;21.70;99.90
2391;DHT22;22957;50.824;4.360;2023-06-22T02:07:35;21.50;99.90
2391;DHT22;22957;50.824;4.360;2023-06-22T02:10:06;21.30;99.90
2391;DHT22;22957;50.824;4.360;2023-06-22T02:12:33;21.80;99.90
2391;DHT22;22957;50.824;4.360;2023-06-22T02:15:00;22.40;99.90
2391;DHT22;22957;50.824;4.360;2023-06-22T02:17:26;22.70;99.90
2391;DHT22;22957;50.824;4.360;2023-06-22T02:19:51;22.40;99.90
2391;DHT22;22957;50.824;4.360;2023-06-22T02:22:17;22.60;99.90
2391;DHT22;22957;50.824;4.360;2023-06-22T02:24:43;22.20;99.90
2391;DHT22;22957;50.824;4.360;2023-06-22T02:27:09;21.80;99.90
2391;DHT22;22957;50.824;4.360;2023-06-22T02:29:36;22.20;99.90
2391;DHT22;22957;50.824;4.360;2023-06-22T02:32:02;22.20;99.90
2391;DHT22;22957;50.824;4.360;2023-06-22T02:34:27;22.10;99.90
2391;DHT22;22957;50.824;4.360;2023-06-22T02:36:53;22.30;99.90
2391;DHT22;22957;50.824;4.360;2023-06-22T02:39:24;22.00;99.90
2391;DHT22;22957;50.824;4.360;2023-06-22T02:41:50;21.90;99.90
2391;DHT22;22957;50.824;4.360;2023-06-22T02:44:16;21.40;99.90
2391;DHT22;22957;50.824;4.360;2023-06-22T02:46:43;21.40;99.90
2391;DHT22;22957;50.824;4.360;2023-06-22T02:49:08;21.90;99.90
2391;DHT22;22957;50.824;4.360;2023-06-22T02:51:34;22.40;99.90
2391;DHT22;22957;50.824;4.360;2023-06-22T02:54:01;21.40;99.90
2391;DHT22;22957;50.824;4.360;2023-06-22T02:56:28;21.30;99.90
2391;DHT22;22957;50.824;4.360;2023-06-22T02:58:56;21.30;99.90
2391;DHT22;22957;50.824;4.360;2023-06-22T03:01:26;21.10;99.90
2391;DHT22;22957;50.824;4.360;2023-06-22T03:03:53;21.30;99.90
2391;DHT22;22957;50.824;4.360;2023-06-22T03:06:19;21.70;99.90
2391;DHT22;22957;50.824;4.360;2023-06-22T03:08:49;21.90;99.90
2391;DHT22;22957;50.824;4.360;2023-06-22T03:11:15;21.80;99.90
2391;DHT22;22957;50.824;4.360;2023-06-22T03:13:41;21.80;99.90
2391;DHT22;22957;50.824;4.360;2023-06-22T03:16:06;21.60;99.90
2391;DHT22;22957;50.824;4.360;2023-06-22T03:18:32;21.20;99.90
2391;DHT22;22957;50.824;4.360;2023-06-22T03:20:57;21.00;99.90
2391;DHT22;22957;50.824;4.360;2023-06-22T03:23:23;21.30;99.90
2391;DHT22;22957;50.824;4.360;2023-06-22T03:25:49;21.00;99.90
2391;DHT22;22957;50.824;4.360;2023-06-22T03:28:14;21.00;99.90
2391;DHT22;22957;50.824;4.360;2023-06-22T03:30:40;21.10;99.90
2391;DHT22;22957;50.824;4.360;2023-06-22T03:33:06;21.10;99.90
2391;DHT22;22957;50.824;4.360;2023-06-22T03:35:31;21.80;99.90
2391;DHT22;22957;50.824;4.360;2023-06-22T03:37:57;21.60;99.90
2391;DHT22;22957;50.824;4.360;2023-06-22T03:40:22;21.80;99.90
2391;DHT22;22957;50.824;4.360;2023-06-22T03:42:48;21.40;99.90
2391;DHT22;22957;50.824;4.360;2023-06-22T03:45:14;21.80;99.90
2391;DHT22;22957;50.824;4.360;2023-06-22T03:47:40;21.50;99.90
2391;DHT22;22957;50.824;4.360;2023-06-22T03:50:06;21.30;99.90
2391;DHT22;22957;50.824;4.360;2023-06-22T03:52:32;21.40;99.90
2391;DHT22;22957;50.824;4.360;2023-06-22T03:54:58;21.70;99.90
2391;DHT22;22957;50.824;4.360;2023-06-22T03:57:23;21.80;99.90
2391;DHT22;22957;50.824;4.360;2023-06-22T03:59:50;21.50;99.90
2391;DHT22;22957;50.824;4.360;2023-06-22T04:02:15;21.90;99.90
2391;DHT22;22957;50.824;4.360;2023-06-22T04:04:41;21.90;99.90
2391;DHT22;22957;50.824;4.360;2023-06-22T04:07:06;21.70;99.90
2391;DHT22;22957;50.824;4.360;2023-06-22T04:09:33;21.60;99.90
2391;DHT22;22957;50.824;4.360;2023-06-22T04:11:58;21.90;99.90
2391;DHT22;22957;50.824;4.360;2023-06-22T04:14:24;22.00;99.90
2391;DHT22;22957;50.824;4.360;2023-06-22T04:16:49;21.90;99.90
2391;DHT22;22957;50.824;4.360;2023-06-22T04:19:15;21.70;99.90
2391;DHT22;22957;50.824;4.360;2023-06-22T04:21:43;21.80;99.90
2391;DHT22;22957;50.824;4.360;2023-06-22T04:24:10;22.20;99.90
2391;DHT22;22957;50.824;4.360;2023-06-22T04:26:36;22.20;99.90
2391;DHT22;22957;50.824;4.360;2023-06-22T04:29:05;21.40;99.90
2391;DHT22;22957;50.824;4.360;2023-06-22T04:31:34;20.70;99.90
2391;DHT22;22957;50.824;4.360;2023-06-22T04:34:05;21.10;99.90
2391;DHT22;22957;50.824;4.360;2023-06-22T04:36:39;20.70;99.90
2391;DHT22;22957;50.824;4.360;2023-06-22T04:39:10;20.50;99.90
2391;DHT22;22957;50.824;4.360;2023-06-22T04:41:36;20.50;99.90
2391;DHT22;22957;50.824;4.360;2023-06-22T04:44:28;20.70;99.90
2391;DHT22;22957;50.824;4.360;2023-06-22T04:46:57;20.40;99.90
2391;DHT22;22957;50.824;4.360;2023-06-22T04:49:28;20.60;99.90
2391;DHT22;22957;50.824;4.360;2023-06-22T04:52:04;21.40;99.90
2391;DHT22;22957;50.824;4.360;2023-06-22T04:54:30;21.60;99.90
2391;DHT22;22957;50.824;4.360;2023-06-22T04:57:07;21.30;99.90
2391;DHT22;22957;50.824;4.360;2023-06-22T04:59:37;20.80;99.90
2391;DHT22;22957;50.824;4.360;2023-06-22T05:02:04;20.70;99.90
2391;DHT22;22957;50.824;4.360;2023-06-22T05:04:31;20.60;99.90
2391;DHT22;22957;50.824;4.360;2023-06-22T05:06:58;20.30;99.90
2391;DHT22;22957;50.824;4.360;2023-06-22T05:09:23;20.30;99.90
2391;DHT22;22957;50.824;4.360;2023-06-22T05:11:50;20.20;99.90
2391;DHT22;22957;50.824;4.360;2023-06-22T05:14:16;20.20;99.90
2391;DHT22;22957;50.824;4.360;2023-06-22T05:16:42;20.10;99.90
2391;DHT22;22957;50.824;4.360;2023-06-22T05:19:08;20.10;99.90
2391;DHT22;22957;50.824;4.360;2023-06-22T05:21:34;19.80;99.90
2391;DHT22;22957;50.824;4.360;2023-06-22T05:24:00;20.00;99.90
2391;DHT22;22957;50.824;4.360;2023-06-22T05:26:31;19.90;99.90
2391;DHT22;22957;50.824;4.360;2023-06-22T05:28:58;19.90;99.90
2391;DHT22;22957;50.824;4.360;2023-06-22T05:31:24;20.30;99.90
2391;DHT22;22957;50.824;4.360;2023-06-22T05:33:52;19.80;99.90
2391;DHT22;22957;50.824;4.360;2023-06-22T05:36:18;19.60;99.90
2391;DHT22;22957;50.824;4.360;2023-06-22T05:38:47;19.80;99.90
2391;DHT22;22957;50.824;4.360;2023-06-22T05:41:13;20.20;99.90
2391;DHT22;22957;50.824;4.360;2023-06-22T05:43:39;20.30;99.90
2391;DHT22;22957;50.824;4.360;2023-06-22T05:46:05;20.20;99.90
2391;DHT22;22957;50.824;4.360;2023-06-22T05:48:31;20.10;99.90
2391;DHT22;22957;50.824;4.360;2023-06-22T05:50:56;20.70;99.90
2391;DHT22;22957;50.824;4.360;2023-06-22T05:53:22;20.60;99.90
2391;DHT22;22957;50.824;4.360;2023-06-22T05:55:48;20.60;99.90
2391;DHT22;22957;50.824;4.360;2023-06-22T05:58:14;20.30;99.90
2391;DHT22;22957;50.824;4.360;2023-06-22T06:00:40;20.60;99.90
2391;DHT22;22957;50.824;4.360;2023-06-22T06:03:07;21.00;99.90
2391;DHT22;22957;50.824;4.360;2023-06-22T06:05:33;20.90;99.90
2391;DHT22;22957;50.824;4.360;2023-06-22T06:08:04;20.70;99.90
2391;DHT22;22957;50.824;4.360;2023-06-22T06:10:33;20.90;99.90
2391;DHT22;22957;50.824;4.360;2023-06-22T06:12:59;20.70;99.90
2391;DHT22;22957;50.824;4.360;2023-06-22T06:15:27;20.60;99.90
2391;DHT22;22957;50.824;4.360;2023-06-22T06:17:53;20.80;99.90
2391;DHT22;22957;50.824;4.360;2023-06-22T06:20:22;21.00;99.90
2391;DHT22;22957;50.824;4.360;2023-06-22T06:22:48;21.10;99.90
2391;DHT22;22957;50.824;4.360;2023-06-22T06:25:14;21.10;99.90
2391;DHT22;22957;50.824;4.360;2023-06-22T06:27:46;21.20;99.90
2391;DHT22;22957;50.824;4.360;2023-06-22T06:30:13;21.10;99.90
2391;DHT22;22957;50.824;4.360;2023-06-22T06:32:39;21.00;99.90
2391;DHT22;22957;50.824;4.360;2023-06-22T06:35:07;21.10;99.90
2391;DHT22;22957;50.824;4.360;2023-06-22T06:37:36;21.60;99.90
2391;DHT22;22957;50.824;4.360;2023-06-22T06:40:04;21.60;99.90
2391;DHT22;22957;50.824;4.360;2023-06-22T06:42:31;22.20;99.90
2391;DHT22;22957;50.824;4.360;2023-06-22T06:44:56;21.70;99.90
2391;DHT22;22957;50.824;4.360;2023-06-22T06:47:22;21.70;99.90
2391;DHT22;22957;50.824;4.360;2023-06-22T06:49:47;21.50;99.90
2391;DHT22;22957;50.824;4.360;2023-06-22T06:52:13;21.70;99.90
2391;DHT22;22957;50.824;4.360;2023-06-22T06:54:39;21.60;99.90
2391;DHT22;22957;50.824;4.360;2023-06-22T06:57:04;21.60;99.90
2391;DHT22;22957;50.824;4.360;2023-06-22T06:59:30;22.00;99.90
2391;DHT22;22957;50.824;4.360;2023-06-22T07:01:55;21.50;99.90
2391;DHT22;22957;50.824;4.360;2023-06-22T07:04:21;21.40;99.90
2391;DHT22;22957;50.824;4.360;2023-06-22T07:06:47;21.30;99.90
2391;DHT22;22957;50.824;4.360;2023-06-22T07:09:12;21.60;99.90
2391;DHT22;22957;50.824;4.360;2023-06-22T07:11:38;22.60;99.90
2391;DHT22;22957;50.824;4.360;2023-06-22T07:14:03;21.90;99.90
2391;DHT22;22957;50.824;4.360;2023-06-22T07:16:29;22.20;99.90
2391;DHT22;22957;50.824;4.360;2023-06-22T07:18:56;22.30;99.90
2391;DHT22;22957;50.824;4.360;2023-06-22T07:21:22;22.10;99.90
2391;DHT22;22957;50.824;4.360;2023-06-22T07:23:47;22.40;99.90
2391;DHT22;22957;50.824;4.360;2023-06-22T07:26:13;21.60;99.90
2391;DHT22;22957;50.824;4.360;2023-06-22T07:28:39;22.60;99.90
2391;DHT22;22957;50.824;4.360;2023-06-22T07:31:06;23.10;99.90
2391;DHT22;22957;50.824;4.360;2023-06-22T07:33:32;22.90;99.90
2391;DHT22;22957;50.824;4.360;2023-06-22T07:35:57;21.90;99.90
2391;DHT22;22957;50.824;4.360;2023-06-22T07:38:23;22.90;99.90
2391;DHT22;22957;50.824;4.360;2023-06-22T07:40:49;22.90;99.90
2391;DHT22;22957;50.824;4.360;2023-06-22T07:43:16;22.50;99.90
2391;DHT22;22957;50.824;4.360;2023-06-22T07:45:51;22.80;99.90
2391;DHT22;22957;50.824;4.360;2023-06-22T07:48:21;22.00;99.90
2391;DHT22;22957;50.824;4.360;2023-06-22T07:50:47;22.20;99.90
2391;DHT22;22957;50.824;4.360;2023-06-22T07:53:13;22.70;99.90
2391;DHT22;22957;50.824;4.360;2023-06-22T07:55:38;22.90;99.90
2391;DHT22;22957;50.824;4.360;2023-06-22T07:58:04;22.20;99.90
2391;DHT22;22957;50.824;4.360;2023-06-22T08:00:30;21.80;99.90
2391;DHT22;22957;50.824;4.360;2023-06-22T08:02:55;22.10;99.90
2391;DHT22;22957;50.824;4.360;2023-06-22T08:05:21;21.80;99.90
2391;DHT22;22957;50.824;4.360;2023-06-22T08:07:47;22.00;99.90
2391;DHT22;22957;50.824;4.360;2023-06-22T08:10:13;23.00;99.90
2391;DHT22;22957;50.824;4.360;2023-06-22T08:12:40;23.30;99.90
2391;DHT22;22957;50.824;4.360;2023-06-22T08:15:06;23.10;99.90
2391;DHT22;22957;50.824;4.360;2023-06-22T08:17:33;22.50;99.90
2391;DHT22;22957;50.824;4.360;2023-06-22T08:19:58;22.80;99.90
2391;DHT22;22957;50.824;4.360;2023-06-22T08:22:24;23.00;99.90
2391;DHT22;22957;50.824;4.360;2023-06-22T08:24:49;23.00;99.90
2391;DHT22;22957;50.824;4.360;2023-06-22T08:27:15;23.20;99.90
2391;DHT22;22957;50.824;4.360;2023-06-22T08:29:42;22.40;99.90
2391;DHT22;22957;50.824;4.360;2023-06-22T08:32:12;22.30;99.90
2391;DHT22;22957;50.824;4.360;2023-06-22T08:34:37;23.00;99.90
2391;DHT22;22957;50.824;4.360;2023-06-22T08:37:08;22.40;99.90
2391;DHT22;22957;50.824;4.360;2023-06-22T08:39:33;22.70;99.90
2391;DHT22;22957;50.824;4.360;2023-06-22T08:41:59;23.10;99.90
2391;DHT22;22957;50.824;4.360;2023-06-22T08:44:25;22.50;99.90
2391;DHT22;22957;50.824;4.360;2023-06-22T08:46:51;22.80;99.90
2391;DHT22;22957;50.824;4.360;2023-06-22T08:49:16;22.90;99.90
2391;DHT22;22957;50.824;4.360;2023-06-22T08:51:42;22.70;99.90
2391;DHT22;22957;50.824;4.360;2023-06-22T08:54:09;22.40;99.90
2391;DHT22;22957;50.824;4.360;2023-06-22T08:56:35;21.80;99.90
2391;DHT22;22957;50.824;4.360;2023-06-22T08:59:01;22.00;99.90
2391;DHT22;22957;50.824;4.360;2023-06-22T09:01:27;22.00;99.90
2391;DHT22;22957;50.824;4.360;2023-06-22T09:03:53;22.70;99.90
2391;DHT22;22957;50.824;4.360;2023-06-22T09:06:23;22.30;99.90
2391;DHT22;22957;50.824;4.360;2023-06-22T09:08:49;22.00;99.90
2391;DHT22;22957;50.824;4.360;2023-06-22T09:11:15;22.30;99.90
2391;DHT22;22957;50.824;4.360;2023-06-22T09:13:41;22.10;99.90
2391;DHT22;22957;50.824;4.360;2023-06-22T09:16:06;23.10;99.90
2391;DHT22;22957;50.824;4.360;2023-06-22T09:18:33;22.40;99.90
2391;DHT22;22957;50.824;4.360;2023-06-22T09:20:59;22.20;99.90
2391;DHT22;22957;50.824;4.360;2023-06-22T09:23:25;21.90;99.90
2391;DHT22;22957;50.824;4.360;2023-06-22T09:25:50;22.20;99.90
2391;DHT22;22957;50.824;4.360;2023-06-22T09:28:16;22.20;99.90
2391;DHT22;22957;50.824;4.360;2023-06-22T09:30:43;21.90;99.90
2391;DHT22;22957;50.824;4.360;2023-06-22T09:33:09;21.50;99.90
2391;DHT22;22957;50.824;4.360;2023-06-22T09:35:35;21.60;99.90
2391;DHT22;22957;50.824;4.360;2023-06-22T09:38:00;20.90;99.90
2391;DHT22;22957;50.824;4.360;2023-06-22T09:40:26;20.50;99.90
2391;DHT22;22957;50.824;4.360;2023-06-22T09:42:51;19.70;99.90
2391;DHT22;22957;50.824;4.360;2023-06-22T09:45:17;19.20;99.90
2391;DHT22;22957;50.824;4.360;2023-06-22T09:47:42;19.30;99.90
2391;DHT22;22957;50.824;4.360;2023-06-22T09:50:08;19.40;99.90
2391;DHT22;22957;50.824;4.360;2023-06-22T09:52:34;18.50;99.90
2391;DHT22;22957;50.824;4.360;2023-06-22T09:54:59;18.60;99.90
2391;DHT22;22957;50.824;4.360;2023-06-22T09:57:25;18.80;99.90
2391;DHT22;22957;50.824;4.360;2023-06-22T09:59:50;18.90;99.90
2391;DHT22;22957;50.824;4.360;2023-06-22T10:02:16;19.20;99.90
2391;DHT22;22957;50.824;4.360;2023-06-22T10:04:42;19.30;99.90
2391;DHT22;22957;50.824;4.360;2023-06-22T10:07:08;19.50;99.90
2391;DHT22;22957;50.824;4.360;2023-06-22T10:09:33;19.70;99.90
2391;DHT22;22957;50.824;4.360;2023-06-22T10:11:59;19.70;99.90
2391;DHT22;22957;50.824;4.360;2023-06-22T10:14:24;19.40;99.90
2391;DHT22;22957;50.824;4.360;2023-06-22T10:16:52;19.00;99.90
2391;DHT22;22957;50.824;4.360;2023-06-22T10:19:18;19.00;99.90
2391;DHT22;22957;50.824;4.360;2023-06-22T10:21:43;19.30;99.90
2391;DHT22;22957;50.824;4.360;2023-06-22T10:24:09;19.60;99.90
2391;DHT22;22957;50.824;4.360;2023-06-22T10:26:35;20.30;99.90
2391;DHT22;22957;50.824;4.360;2023-06-22T10:29:02;20.00;99.90
2391;DHT22;22957;50.824;4.360;2023-06-22T10:31:27;20.20;99.90
2391;DHT22;22957;50.824;4.360;2023-06-22T10:33:54;20.20;99.90
2391;DHT22;22957;50.824;4.360;2023-06-22T10:36:20;20.60;99.90
2391;DHT22;22957;50.824;4.360;2023-06-22T10:38:46;20.60;99.90
2391;DHT22;22957;50.824;4.360;2023-06-22T10:41:13;20.90;99.90
2391;DHT22;22957;50.824;4.360;2023-06-22T10:43:38;19.80;99.90
2391;DHT22;22957;50.824;4.360;2023-06-22T10:46:04;19.60;99.90
2391;DHT22;22957;50.824;4.360;2023-06-22T10:48:30;19.60;99.90
2391;DHT22;22957;50.824;4.360;2023-06-22T10:50:55;20.50;99.90
2391;DHT22;22957;50.824;4.360;2023-06-22T10:53:21;19.90;99.90
2391;DHT22;22957;50.824;4.360;2023-06-22T10:55:47;20.00;99.90
2391;DHT22;22957;50.824;4.360;2023-06-22T10:58:13;19.90;99.90
2391;DHT22;22957;50.824;4.360;2023-06-22T11:00:38;20.30;99.90
2391;DHT22;22957;50.824;4.360;2023-06-22T11:03:04;20.40;99.90
2391;DHT22;22957;50.824;4.360;2023-06-22T11:05:29;20.50;99.90
2391;DHT22;22957;50.824;4.360;2023-06-22T11:07:55;20.30;99.90
2391;DHT22;22957;50.824;4.360;2023-06-22T11:10:20;21.00;99.90
2391;DHT22;22957;50.824;4.360;2023-06-22T11:12:46;21.30;99.90
2391;DHT22;22957;50.824;4.360;2023-06-22T11:15:12;20.80;99.90
2391;DHT22;22957;50.824;4.360;2023-06-22T11:17:37;19.90;99.90
2391;DHT22;22957;50.824;4.360;2023-06-22T11:20:04;19.50;99.90
2391;DHT22;22957;50.824;4.360;2023-06-22T11:22:37;19.80;99.90
2391;DHT22;22957;50.824;4.360;2023-06-22T11:25:05;20.40;99.90
2391;DHT22;22957;50.824;4.360;2023-06-22T11:27:30;20.10;99.90
2391;DHT22;22957;50.824;4.360;2023-06-22T11:29:56;19.50;99.90
2391;DHT22;22957;50.824;4.360;2023-06-22T11:32:22;19.90;99.90
2391;DHT22;22957;50.824;4.360;2023-06-22T11:34:48;19.20;99.90
2391;DHT22;22957;50.824;4.360;2023-06-22T11:37:13;20.40;99.90
2391;DHT22;22957;50.824;4.360;2023-06-22T11:39:39;20.60;99.90
2391;DHT22;22957;50.824;4.360;2023-06-22T11:42:05;21.00;99.90
2391;DHT22;22957;50.824;4.360;2023-06-22T11:44:30;21.40;99.90
2391;DHT22;22957;50.824;4.360;2023-06-22T11:46:56;20.50;99.90
2391;DHT22;22957;50.824;4.360;2023-06-22T11:49:21;19.70;99.90
2391;DHT22;22957;50.824;4.360;2023-06-22T11:51:47;20.20;99.90
2391;DHT22;22957;50.824;4.360;2023-06-22T11:54:12;20.60;99.90
2391;DHT22;22957;50.824;4.360;2023-06-22T11:56:38;20.90;99.90
2391;DHT22;22957;50.824;4.360;2023-06-22T11:59:03;19.90;99.90
2391;DHT22;22957;50.824;4.360;2023-06-22T12:01:29;20.30;99.90
2391;DHT22;22957;50.824;4.360;2023-06-22T12:03:54;20.80;99.90
2391;DHT22;22957;50.824;4.360;2023-06-22T12:06:20;20.10;99.90
2391;DHT22;22957;50.824;4.360;2023-06-22T12:08:45;20.50;99.90
2391;DHT22;22957;50.824;4.360;2023-06-22T12:11:11;20.40;99.90
2391;DHT22;22957;50.824;4.360;2023-06-22T12:13:37;20.10;99.90
2391;DHT22;22957;50.824;4.360;2023-06-22T12:16:02;20.30;99.90
2391;DHT22;22957;50.824;4.360;2023-06-22T12:18:28;20.00;99.90
2391;DHT22;22957;50.824;4.360;2023-06-22T12:20:53;20.50;99.90
2391;DHT22;22957;50.824;4.360;2023-06-22T12:23:19;20.60;99.90
2391;DHT22;22957;50.824;4.360;2023-06-22T12:25:45;20.90;99.90
2391;DHT22;22957;50.824;4.360;2023-06-22T12:28:11;21.10;99.90
2391;DHT22;22957;50.824;4.360;2023-06-22T12:30:36;20.50;99.90
2391;DHT22;22957;50.824;4.360;2023-06-22T12:33:02;19.50;99.90
2391;DHT22;22957;50.824;4.360;2023-06-22T12:35:27;20.60;99.90
2391;DHT22;22957;50.824;4.360;2023-06-22T12:37:53;20.30;99.90
2391;DHT22;22957;50.824;4.360;2023-06-22T12:40:18;20.70;99.90
2391;DHT22;22957;50.824;4.360;2023-06-22T12:42:45;20.30;99.90
2391;DHT22;22957;50.824;4.360;2023-06-22T12:45:11;20.50;99.90
2391;DHT22;22957;50.824;4.360;2023-06-22T12:47:36;20.00;99.90
2391;DHT22;22957;50.824;4.360;2023-06-22T12:50:02;19.30;99.90
2391;DHT22;22957;50.824;4.360;2023-06-22T12:52:30;19.80;99.90
2391;DHT22;22957;50.824;4.360;2023-06-22T12:54:56;20.30;99.90
2391;DHT22;22957;50.824;4.360;2023-06-22T12:57:22;20.10;99.90
2391;DHT22;22957;50.824;4.360;2023-06-22T12:59:48;19.80;99.90
2391;DHT22;22957;50.824;4.360;2023-06-22T13:02:14;19.70;99.90
2391;DHT22;22957;50.824;4.360;2023-06-22T13:04:39;20.20;99.90
2391;DHT22;22957;50.824;4.360;2023-06-22T13:07:05;20.30;99.90
2391;DHT22;22957;50.824;4.360;2023-06-22T13:09:31;19.80;99.90
2391;DHT22;22957;50.824;4.360;2023-06-22T13:11:56;20.80;99.90
2391;DHT22;22957;50.824;4.360;2023-06-22T13:14:22;19.90;99.90
2391;DHT22;22957;50.824;4.360;2023-06-22T13:16:47;20.30;99.90
2391;DHT22;22957;50.824;4.360;2023-06-22T13:19:13;20.50;99.90
2391;DHT22;22957;50.824;4.360;2023-06-22T13:21:38;21.00;99.90
2391;DHT22;22957;50.824;4.360;2023-06-22T13:24:04;20.80;99.90
2391;DHT22;22957;50.824;4.360;2023-06-22T13:26:31;21.10;99.90
2391;DHT22;22957;50.824;4.360;2023-06-22T13:28:57;20.60;99.90
2391;DHT22;22957;50.824;4.360;2023-06-22T13:31:23;21.10;99.90
2391;DHT22;22957;50.824;4.360;2023-06-22T13:33:48;20.90;99.90
2391;DHT22;22957;50.824;4.360;2023-06-22T13:36:17;20.80;99.90
2391;DHT22;22957;50.824;4.360;2023-06-22T13:38:43;20.60;99.90
2391;DHT22;22957;50.824;4.360;2023-06-22T13:41:08;20.10;99.90
2391;DHT22;22957;50.824;4.360;2023-06-22T13:43:34;20.30;99.90
2391;DHT22;22957;50.824;4.360;2023-06-22T13:46:00;20.40;99.90
2391;DHT22;22957;50.824;4.360;2023-06-22T13:48:25;19.90;99.90
2391;DHT22;22957;50.824;4.360;2023-06-22T13:50:51;20.30;99.90
2391;DHT22;22957;50.824;4.360;2023-06-22T13:53:17;19.90;99.90
2391;DHT22;22957;50.824;4.360;2023-06-22T13:55:43;20.60;99.90
2391;DHT22;22957;50.824;4.360;2023-06-22T13:58:08;19.70;99.90
2391;DHT22;22957;50.824;4.360;2023-06-22T14:00:34;20.00;99.90
2391;DHT22;22957;50.824;4.360;2023-06-22T14:02:59;19.70;99.90
2391;DHT22;22957;50.824;4.360;2023-06-22T14:05:25;19.80;99.90
2391;DHT22;22957;50.824;4.360;2023-06-22T14:07:50;20.20;99.90
2391;DHT22;22957;50.824;4.360;2023-06-22T14:10:16;20.20;99.90
2391;DHT22;22957;50.824;4.360;2023-06-22T14:12:42;19.70;99.90
2391;DHT22;22957;50.824;4.360;2023-06-22T14:15:07;19.30;99.90
2391;DHT22;22957;50.824;4.360;2023-06-22T14:17:33;19.30;99.90
2391;DHT22;22957;50.824;4.360;2023-06-22T14:19:58;20.00;99.90
2391;DHT22;22957;50.824;4.360;2023-06-22T14:22:24;19.60;99.90
2391;DHT22;22957;50.824;4.360;2023-06-22T14:24:50;20.20;99.90
2391;DHT22;22957;50.824;4.360;2023-06-22T14:27:16;20.40;99.90
2391;DHT22;22957;50.824;4.360;2023-06-22T14:29:42;20.90;99.90
2391;DHT22;22957;50.824;4.360;2023-06-22T14:32:08;20.30;99.90
2391;DHT22;22957;50.824;4.360;2023-06-22T14:34:34;20.10;99.90
2391;DHT22;22957;50.824;4.360;2023-06-22T14:37:08;20.60;99.90
2391;DHT22;22957;50.824;4.360;2023-06-22T14:39:38;20.60;99.90
2391;DHT22;22957;50.824;4.360;2023-06-22T14:42:05;20.70;99.90
2391;DHT22;22957;50.824;4.360;2023-06-22T14:44:30;21.00;99.90
2391;DHT22;22957;50.824;4.360;2023-06-22T14:46:56;20.90;99.90
2391;DHT22;22957;50.824;4.360;2023-06-22T14:49:23;21.00;99.90
2391;DHT22;22957;50.824;4.360;2023-06-22T14:51:49;20.60;99.90
2391;DHT22;22957;50.824;4.360;2023-06-22T14:54:14;20.80;99.90
2391;DHT22;22957;50.824;4.360;2023-06-22T14:56:40;21.30;99.90
2391;DHT22;22957;50.824;4.360;2023-06-22T14:59:06;21.40;99.90
2391;DHT22;22957;50.824;4.360;2023-06-22T15:01:32;21.40;99.90
2391;DHT22;22957;50.824;4.360;2023-06-22T15:03:57;21.50;99.90
2391;DHT22;22957;50.824;4.360;2023-06-22T15:06:23;21.30;99.90
2391;DHT22;22957;50.824;4.360;2023-06-22T15:08:48;21.50;99.90
2391;DHT22;22957;50.824;4.360;2023-06-22T15:11:14;21.00;99.90
2391;DHT22;22957;50.824;4.360;2023-06-22T15:13:40;20.90;99.90
2391;DHT22;22957;50.824;4.360;2023-06-22T15:16:07;21.30;99.90
2391;DHT22;22957;50.824;4.360;2023-06-22T15:18:33;20.70;99.90
2391;DHT22;22957;50.824;4.360;2023-06-22T15:21:01;20.40;99.90
2391;DHT22;22957;50.824;4.360;2023-06-22T15:23:27;20.90;99.90
2391;DHT22;22957;50.824;4.360;2023-06-22T15:25:57;20.80;99.90
2391;DHT22;22957;50.824;4.360;2023-06-22T15:28:23;20.40;99.90
2391;DHT22;22957;50.824;4.360;2023-06-22T15:30:49;20.80;99.90
2391;DHT22;22957;50.824;4.360;2023-06-22T15:33:15;20.70;99.90
2391;DHT22;22957;50.824;4.360;2023-06-22T15:35:41;20.30;99.90
2391;DHT22;22957;50.824;4.360;2023-06-22T15:38:07;20.70;99.90
2391;DHT22;22957;50.824;4.360;2023-06-22T15:40:32;20.80;99.90
2391;DHT22;22957;50.824;4.360;2023-06-22T15:42:58;20.40;99.90
2391;DHT22;22957;50.824;4.360;2023-06-22T15:45:24;20.50;99.90
2391;DHT22;22957;50.824;4.360;2023-06-22T15:47:50;20.80;99.90